Time;durP1;ratioP1;P1;durP2;ratioP2;P2;SDS_P1;SDS_P2;PMS_P1;PMS_P2;Temp;Humidity;BMP_temperature;BMP_pressure;BME280_temperature;BME280_humidity;BME280_pressure;Samples;Min_cycle;Max_cycle;Signal;HPM_P1;HPM_P2
2023/05/23 00:01:30;;;;;;;40.85;15.13;;;13.30;99.90;;;;;;5014629;28;20101;-73
2023/05/23 00:03:56;;;;;;;42.25;14.77;;;13.20;99.90;;;;;;5014358;28;20022;-73
2023/05/23 00:06:22;;;;;;;36.22;14.82;;;13.20;99.90;;;;;;5015368;28;20026;-73
2023/05/23 00:08:49;;;;;;;35.28;13.98;;;13.20;99.90;;;;;;5014683;28;20030;-73
2023/05/23 00:11:15;;;;;;;41.10;14.65;;;13.20;99.90;;;;;;5014774;28;20053;-73
2023/05/23 00:13:41;;;;;;;34.13;14.15;;;13.20;99.90;;;;;;5014028;28;20022;-73
2023/05/23 00:16:08;;;;;;;31.23;12.80;;;13.30;99.90;;;;;;5007447;28;20026;-73
2023/05/23 00:18:35;;;;;;;27.10;10.68;;;13.40;99.90;;;;;;5010631;28;20022;-73
2023/05/23 00:21:01;;;;;;;24.27;10.05;;;13.30;99.90;;;;;;5006216;28;20034;-72
2023/05/23 00:23:28;;;;;;;24.27;9.98;;;13.30;99.90;;;;;;5013810;28;20022;-72
2023/05/23 00:25:54;;;;;;;28.77;10.00;;;13.40;99.90;;;;;;5013385;28;20029;-72
2023/05/23 00:28:20;;;;;;;26.40;10.13;;;13.40;99.90;;;;;;5012920;28;20033;-73
2023/05/23 00:30:47;;;;;;;24.10;10.70;;;13.40;99.90;;;;;;5014076;28;20476;-73
2023/05/23 00:33:15;;;;;;;28.85;10.93;;;13.40;99.90;;;;;;5014306;28;20021;-73
2023/05/23 00:35:41;;;;;;;33.17;10.98;;;13.40;99.90;;;;;;5012410;28;20040;-72
2023/05/23 00:38:07;;;;;;;28.75;11.20;;;13.50;99.90;;;;;;5014287;28;20022;-72
2023/05/23 00:40:33;;;;;;;33.13;11.55;;;13.50;99.90;;;;;;5013139;28;20042;-73
2023/05/23 00:43:00;;;;;;;33.97;12.00;;;13.50;99.90;;;;;;5013777;28;20462;-73
2023/05/23 00:45:26;;;;;;;37.25;12.10;;;13.50;99.90;;;;;;5013948;28;20438;-73
2023/05/23 00:47:52;;;;;;;35.83;12.77;;;13.50;99.90;;;;;;5009768;28;20022;-74
2023/05/23 00:50:18;;;;;;;39.97;12.68;;;13.50;99.90;;;;;;5012983;28;20096;-73
2023/05/23 00:52:45;;;;;;;40.85;12.90;;;13.50;99.90;;;;;;5027355;28;20026;-73
2023/05/23 00:55:12;;;;;;;31.40;11.18;;;13.50;99.90;;;;;;5022353;28;20018;-73
2023/05/23 00:57:43;;;;;;;32.10;11.30;;;13.50;99.90;;;;;;5018196;28;20022;-74
2023/05/23 01:00:11;;;;;;;36.75;11.60;;;13.50;99.90;;;;;;5012784;28;20088;-73
2023/05/23 01:02:44;;;;;;;33.85;10.52;;;13.50;99.90;;;;;;5013545;28;20041;-73
2023/05/23 01:05:13;;;;;;;33.53;11.27;;;13.50;99.90;;;;;;5013424;28;20045;-73
2023/05/23 01:07:45;;;;;;;38.13;11.95;;;13.60;99.90;;;;;;5012403;28;20041;-73
2023/05/23 01:10:12;;;;;;;38.42;11.52;;;13.50;99.90;;;;;;5013119;28;20053;-73
2023/05/23 01:13:03;;;;;;;35.83;11.30;;;13.60;99.90;;;;;;5012869;28;20044;-73
2023/05/23 01:16:05;;;;;;;36.55;11.23;;;13.60;99.90;;;;;;5012615;28;20476;-73
2023/05/23 01:18:37;;;;;;;40.05;10.68;;;13.60;99.90;;;;;;5009792;28;20044;-72
2023/05/23 01:21:10;;;;;;;38.03;10.23;;;13.70;99.90;;;;;;5013285;28;20014;-73
2023/05/23 01:23:58;;;;;;;41.58;10.05;;;13.60;99.90;;;;;;5012894;28;20033;-74
2023/05/23 01:26:38;;;;;;;32.50;9.43;;;13.60;99.90;;;;;;5008267;28;20069;-74
2023/05/23 01:29:13;;;;;;;36.08;9.05;;;13.60;99.90;;;;;;5000344;28;20030;-74
2023/05/23 01:31:45;;;;;;;38.45;9.32;;;13.60;99.90;;;;;;5012075;28;20054;-73
2023/05/23 01:34:15;;;;;;;36.28;9.55;;;13.60;99.90;;;;;;5010423;28;20572;-74
2023/05/23 01:36:42;;;;;;;37.22;9.95;;;13.60;99.90;;;;;;5012441;28;20480;-73
2023/05/23 01:39:09;;;;;;;28.42;8.27;;;13.60;99.90;;;;;;5012395;28;20049;-73
2023/05/23 01:41:35;;;;;;;28.23;8.75;;;13.60;99.90;;;;;;5012366;28;20029;-73
2023/05/23 01:44:01;;;;;;;27.48;8.90;;;13.60;99.90;;;;;;5009900;28;20116;-73
2023/05/23 01:46:27;;;;;;;26.92;8.85;;;13.60;99.90;;;;;;5011850;28;20034;-74
2023/05/23 01:48:55;;;;;;;33.28;9.27;;;13.60;99.90;;;;;;5012053;28;20018;-74
2023/05/23 01:51:23;;;;;;;36.40;8.93;;;13.60;99.90;;;;;;5006913;28;20058;-74
2023/05/23 01:53:50;;;;;;;32.78;8.13;;;13.60;99.90;;;;;;5011559;28;20488;-74
2023/05/23 01:56:16;;;;;;;25.48;7.80;;;13.60;99.90;;;;;;5012301;28;20057;-74
2023/05/23 01:58:42;;;;;;;30.95;8.20;;;13.60;99.90;;;;;;5008285;28;20439;-73
2023/05/23 02:01:09;;;;;;;27.65;8.27;;;13.60;99.90;;;;;;5012298;28;20041;-73
2023/05/23 02:03:35;;;;;;;34.25;9.23;;;13.70;99.90;;;;;;5011506;28;20109;-72
2023/05/23 02:06:01;;;;;;;29.25;8.18;;;13.70;99.90;;;;;;5012433;28;20034;-73
2023/05/23 02:08:26;;;;;;;28.42;8.80;;;13.60;99.90;;;;;;5007027;28;20108;-73
2023/05/23 02:10:52;;;;;;;30.05;8.38;;;13.70;99.90;;;;;;5005613;28;20030;-73
2023/05/23 02:13:17;;;;;;;32.83;7.95;;;13.70;99.90;;;;;;5011717;28;20056;-72
2023/05/23 02:15:43;;;;;;;29.60;8.50;;;13.70;99.90;;;;;;5012188;28;20022;-72
2023/05/23 02:18:09;;;;;;;35.78;9.13;;;13.60;99.90;;;;;;5001962;28;20072;-73
2023/05/23 02:20:40;;;;;;;30.45;8.82;;;13.60;99.90;;;;;;5015847;28;20026;-73
2023/05/23 02:23:06;;;;;;;34.15;8.82;;;13.60;99.90;;;;;;5004762;28;20384;-73
2023/05/23 02:25:31;;;;;;;23.38;8.07;;;13.60;99.90;;;;;;5014297;28;20164;-73
2023/05/23 02:27:57;;;;;;;33.17;8.40;;;13.60;99.90;;;;;;5005133;28;20397;-72
2023/05/23 02:30:22;;;;;;;35.47;8.52;;;13.50;99.90;;;;;;5009815;28;20018;-72
2023/05/23 02:32:48;;;;;;;35.42;8.98;;;13.50;99.90;;;;;;5015375;28;20030;-72
2023/05/23 02:35:14;;;;;;;33.42;9.02;;;13.50;99.90;;;;;;5013888;28;20018;-73
2023/05/23 02:37:39;;;;;;;30.20;8.50;;;13.50;99.90;;;;;;5013099;28;20037;-73
2023/05/23 02:40:06;;;;;;;36.72;8.75;;;13.50;99.90;;;;;;5015057;28;20045;-73
2023/05/23 02:42:33;;;;;;;28.65;7.72;;;13.50;99.90;;;;;;5015804;28;20729;-73
2023/05/23 02:44:58;;;;;;;30.40;7.55;;;13.50;99.90;;;;;;5015016;28;20029;-73
2023/05/23 02:47:30;;;;;;;29.48;7.93;;;13.50;99.90;;;;;;5013521;28;20341;-73
2023/05/23 02:49:55;;;;;;;34.67;7.47;;;13.50;99.90;;;;;;5015403;28;20034;-73
2023/05/23 02:52:21;;;;;;;30.95;7.10;;;13.50;99.90;;;;;;5015173;28;20105;-73
2023/05/23 02:54:46;;;;;;;35.92;6.60;;;13.40;99.90;;;;;;5014234;28;20477;-73
2023/05/23 02:57:15;;;;;;;26.27;6.20;;;13.40;99.90;;;;;;5013292;28;20068;-73
2023/05/23 02:59:41;;;;;;;21.77;6.20;;;13.40;99.90;;;;;;5015662;28;20025;-73
2023/05/23 03:02:07;;;;;;;24.17;5.88;;;13.40;99.90;;;;;;5015720;28;20106;-73
2023/05/23 03:04:33;;;;;;;25.13;6.63;;;13.40;99.90;;;;;;5015985;28;20022;-73
2023/05/23 03:06:59;;;;;;;24.88;6.53;;;13.40;99.90;;;;;;5016384;28;20337;-73
2023/05/23 03:09:25;;;;;;;28.98;6.60;;;13.40;99.90;;;;;;5015854;28;20032;-73
2023/05/23 03:11:50;;;;;;;32.53;6.80;;;13.40;99.90;;;;;;5016095;28;20101;-73
2023/05/23 03:14:16;;;;;;;24.70;6.30;;;13.40;99.90;;;;;;5015492;28;20257;-74
2023/05/23 03:16:42;;;;;;;27.73;7.50;;;13.40;99.90;;;;;;5015434;28;20022;-73
2023/05/23 03:19:07;;;;;;;28.50;6.78;;;13.40;99.90;;;;;;5015949;28;20026;-73
2023/05/23 03:21:34;;;;;;;29.30;7.22;;;13.30;99.90;;;;;;5015514;28;20026;-73
2023/05/23 03:23:59;;;;;;;24.55;6.65;;;13.30;99.90;;;;;;5016033;28;20045;-73
2023/05/23 03:26:25;;;;;;;23.50;6.20;;;13.30;99.90;;;;;;5011357;28;20030;-73
2023/05/23 03:28:51;;;;;;;23.00;5.68;;;13.30;99.90;;;;;;5015180;28;20029;-73
2023/05/23 03:31:17;;;;;;;19.75;6.07;;;13.20;99.90;;;;;;5014591;28;20026;-74
2023/05/23 03:33:42;;;;;;;19.88;5.38;;;13.20;99.90;;;;;;5013478;28;20037;-74
2023/05/23 03:36:08;;;;;;;16.92;5.32;;;13.10;99.90;;;;;;5014836;28;20037;-73
2023/05/23 03:38:34;;;;;;;13.60;5.18;;;13.10;99.90;;;;;;5014422;28;20041;-74
2023/05/23 03:40:59;;;;;;;19.77;5.30;;;13.00;99.90;;;;;;5014611;28;20101;-72
2023/05/23 03:43:25;;;;;;;18.98;5.18;;;13.00;99.90;;;;;;5014394;28;20380;-73
2023/05/23 03:45:51;;;;;;;19.63;5.35;;;13.00;99.90;;;;;;5014504;28;20037;-73
2023/05/23 03:48:16;;;;;;;24.15;5.47;;;13.00;99.90;;;;;;5014424;28;20464;-73
2023/05/23 03:50:42;;;;;;;22.90;5.85;;;13.00;99.90;;;;;;5014351;28;20014;-73
2023/05/23 03:53:08;;;;;;;23.23;5.65;;;13.00;99.90;;;;;;5014581;28;20076;-73
2023/05/23 03:55:33;;;;;;;18.80;5.78;;;13.00;99.90;;;;;;5011772;28;20022;-73
2023/05/23 03:57:59;;;;;;;23.63;5.70;;;13.00;99.90;;;;;;5011656;28;20032;-73
2023/05/23 04:00:25;;;;;;;21.30;5.55;;;12.90;99.90;;;;;;5004417;28;20018;-73
2023/05/23 04:02:51;;;;;;;19.60;6.07;;;12.90;99.90;;;;;;5004990;28;20104;-73
2023/05/23 04:05:16;;;;;;;17.80;5.18;;;12.80;99.90;;;;;;5014640;28;20026;-73
2023/05/23 04:07:42;;;;;;;19.25;5.95;;;12.80;99.90;;;;;;5014158;28;20026;-73
2023/05/23 04:10:09;;;;;;;17.30;5.43;;;12.70;99.90;;;;;;5014105;28;20037;-73
2023/05/23 04:12:35;;;;;;;23.80;6.50;;;12.70;99.90;;;;;;5014374;28;20072;-73
2023/05/23 04:15:01;;;;;;;17.20;5.93;;;12.70;99.90;;;;;;5014057;28;20053;-72
2023/05/23 04:17:28;;;;;;;20.45;6.63;;;12.70;99.90;;;;;;5014012;28;20527;-74
2023/05/23 04:19:53;;;;;;;29.90;7.10;;;12.70;99.90;;;;;;5013726;28;20022;-73
2023/05/23 04:22:19;;;;;;;20.65;6.75;;;12.70;99.90;;;;;;5013767;28;20087;-74
2023/05/23 04:24:45;;;;;;;28.38;6.93;;;12.70;99.90;;;;;;5013792;28;20018;-73
2023/05/23 04:27:10;;;;;;;24.67;8.02;;;12.70;99.90;;;;;;5013808;28;20033;-73
2023/05/23 04:29:37;;;;;;;21.25;7.35;;;12.70;99.90;;;;;;5013356;28;20092;-74
2023/05/23 04:32:02;;;;;;;23.27;6.97;;;12.60;99.90;;;;;;5013569;28;20028;-73
2023/05/23 04:34:29;;;;;;;22.33;7.35;;;12.70;99.90;;;;;;5013656;28;20462;-72
2023/05/23 04:36:56;;;;;;;25.33;7.57;;;12.70;99.90;;;;;;5013925;28;20029;-73
2023/05/23 04:39:21;;;;;;;26.92;8.63;;;12.70;99.90;;;;;;5013083;28;20054;-73
2023/05/23 04:41:48;;;;;;;30.33;8.65;;;12.70;99.90;;;;;;5013255;28;20025;-73
2023/05/23 04:44:14;;;;;;;25.20;8.65;;;12.70;99.90;;;;;;5010786;28;20022;-73
2023/05/23 04:46:44;;;;;;;28.45;8.93;;;12.70;99.90;;;;;;5009265;28;20031;-73
2023/05/23 04:49:09;;;;;;;25.95;8.20;;;12.70;99.90;;;;;;5010201;28;20041;-74
2023/05/23 04:51:35;;;;;;;26.02;8.55;;;12.70;99.90;;;;;;5012901;28;20506;-74
2023/05/23 04:54:01;;;;;;;21.80;8.18;;;12.70;99.90;;;;;;5013162;28;20064;-74
2023/05/23 04:56:27;;;;;;;25.13;7.63;;;12.70;99.90;;;;;;5012375;28;20499;-73
2023/05/23 04:58:54;;;;;;;27.45;8.00;;;12.70;99.90;;;;;;5012956;28;20029;-74
2023/05/23 05:01:23;;;;;;;25.58;8.35;;;12.70;99.90;;;;;;5011493;28;20040;-74
2023/05/23 05:03:49;;;;;;;28.08;8.38;;;12.70;99.90;;;;;;5008189;28;20024;-73
2023/05/23 05:06:16;;;;;;;31.98;8.73;;;12.70;99.90;;;;;;5010574;28;20117;-73
2023/05/23 05:08:41;;;;;;;32.15;9.10;;;12.70;99.90;;;;;;5008639;28;20026;-73
2023/05/23 05:11:08;;;;;;;28.40;8.98;;;12.70;99.90;;;;;;5023139;28;20030;-72
2023/05/23 05:13:34;;;;;;;27.27;7.95;;;12.70;99.90;;;;;;5025563;28;20025;-73
2023/05/23 05:16:00;;;;;;;27.27;8.25;;;12.70;99.90;;;;;;5018329;28;20119;-73
2023/05/23 05:18:27;;;;;;;26.10;8.40;;;12.70;99.90;;;;;;4999043;28;20055;-73
2023/05/23 05:20:53;;;;;;;24.05;8.00;;;12.70;99.90;;;;;;4950648;28;20378;-73
2023/05/23 05:23:18;;;;;;;28.40;7.60;;;12.60;99.90;;;;;;4953613;28;20110;-73
2023/05/23 05:25:44;;;;;;;23.08;7.55;;;12.60;99.90;;;;;;4954357;29;20050;-72
2023/05/23 05:28:10;;;;;;;26.83;7.82;;;12.60;99.90;;;;;;4953850;29;20366;-72
2023/05/23 05:30:36;;;;;;;20.98;7.78;;;12.60;99.90;;;;;;4956897;29;20039;-72
2023/05/23 05:33:03;;;;;;;24.73;7.40;;;12.60;99.90;;;;;;4956474;28;20023;-72
2023/05/23 05:35:32;;;;;;;22.50;7.45;;;12.60;99.90;;;;;;4942795;29;20122;-73
2023/05/23 05:37:58;;;;;;;23.48;8.35;;;12.60;99.90;;;;;;4954126;28;20041;-73
2023/05/23 05:40:24;;;;;;;22.30;7.15;;;12.60;99.90;;;;;;4949356;28;20043;-73
2023/05/23 05:42:50;;;;;;;23.17;7.40;;;12.70;99.90;;;;;;4948030;28;20034;-73
2023/05/23 05:45:15;;;;;;;22.55;7.75;;;12.70;99.90;;;;;;4949968;29;20098;-73
2023/05/23 05:47:41;;;;;;;22.10;7.35;;;12.70;99.90;;;;;;4984200;28;20538;-73
2023/05/23 05:50:08;;;;;;;21.00;7.53;;;12.70;99.90;;;;;;4950896;29;20034;-73
2023/05/23 05:52:37;;;;;;;22.48;7.68;;;12.70;99.90;;;;;;4942706;29;20126;-73
2023/05/23 05:55:10;;;;;;;21.63;6.43;;;12.80;99.90;;;;;;4944894;29;20043;-73
2023/05/23 05:57:37;;;;;;;23.92;6.72;;;12.80;99.90;;;;;;4951090;28;20066;-72
2023/05/23 06:00:12;;;;;;;14.68;5.70;;;12.80;99.90;;;;;;4951828;29;20471;-72
2023/05/23 06:02:38;;;;;;;15.55;5.85;;;12.70;99.90;;;;;;4949921;29;20098;-72
2023/05/23 06:05:06;;;;;;;12.20;4.82;;;12.70;99.90;;;;;;4952561;28;20035;-72
2023/05/23 06:07:33;;;;;;;17.52;5.20;;;12.60;99.90;;;;;;4949191;29;20047;-74
2023/05/23 06:09:58;;;;;;;11.95;4.95;;;12.70;99.90;;;;;;4953755;29;20119;-73
2023/05/23 06:12:24;;;;;;;14.27;5.05;;;12.70;99.90;;;;;;4953041;29;20406;-73
2023/05/23 06:14:49;;;;;;;10.57;3.83;;;12.60;99.90;;;;;;4951990;28;20042;-72
2023/05/23 06:17:15;;;;;;;11.68;4.10;;;12.60;99.90;;;;;;4953173;29;20434;-72
2023/05/23 06:19:40;;;;;;;10.77;3.83;;;12.60;99.90;;;;;;4952923;29;20023;-73
2023/05/23 06:22:09;;;;;;;9.93;3.63;;;12.60;99.90;;;;;;4953371;28;20098;-73
2023/05/23 06:24:35;;;;;;;14.38;3.53;;;12.60;99.90;;;;;;4950659;29;20027;-72
2023/05/23 06:27:03;;;;;;;13.75;3.40;;;12.60;99.90;;;;;;4953285;29;20030;-72
2023/05/23 06:29:30;;;;;;;11.32;2.97;;;12.60;99.90;;;;;;4952464;29;20027;-73
2023/05/23 06:31:56;;;;;;;13.43;2.92;;;12.60;99.90;;;;;;4953476;29;20489;-72
2023/05/23 06:34:21;;;;;;;14.13;3.03;;;12.50;99.90;;;;;;4953186;29;20027;-73
2023/05/23 06:36:48;;;;;;;11.98;3.30;;;12.50;99.90;;;;;;4948693;28;20028;-73
2023/05/23 06:39:14;;;;;;;13.05;2.78;;;12.50;99.90;;;;;;4943851;29;20183;-73
2023/05/23 06:41:40;;;;;;;12.00;2.65;;;12.50;99.90;;;;;;4938791;29;20060;-73
2023/05/23 06:44:05;;;;;;;16.60;3.33;;;12.60;99.90;;;;;;4950474;29;20046;-73
2023/05/23 06:46:31;;;;;;;17.92;2.83;;;12.50;99.90;;;;;;4952898;28;20027;-74
2023/05/23 06:48:57;;;;;;;18.08;3.30;;;12.50;99.90;;;;;;4952381;28;20159;-73
2023/05/23 06:51:22;;;;;;;18.42;3.53;;;12.50;99.90;;;;;;4952924;29;20020;-73
2023/05/23 06:53:48;;;;;;;21.05;3.50;;;12.60;99.90;;;;;;4952270;28;20019;-72
2023/05/23 06:56:14;;;;;;;17.42;3.40;;;12.60;99.90;;;;;;4947426;29;20087;-73
2023/05/23 06:58:40;;;;;;;19.13;3.58;;;12.70;99.90;;;;;;4936987;29;20460;-73
2023/05/23 07:01:05;;;;;;;24.58;4.40;;;12.90;99.90;;;;;;4953443;28;20027;-73
2023/05/23 07:03:31;;;;;;;19.70;3.95;;;13.00;99.90;;;;;;4953357;29;20137;-73
2023/05/23 07:05:57;;;;;;;24.52;4.00;;;13.10;99.90;;;;;;4949470;28;20040;-73
2023/05/23 07:08:23;;;;;;;18.05;3.13;;;13.10;99.90;;;;;;4956385;29;20094;-73
2023/05/23 07:10:48;;;;;;;23.17;3.60;;;13.20;99.90;;;;;;4953090;29;20028;-73
2023/05/23 07:13:14;;;;;;;17.85;3.60;;;13.10;99.90;;;;;;4956524;28;20047;-72
2023/05/23 07:15:40;;;;;;;17.42;3.13;;;13.10;99.90;;;;;;4952054;29;20178;-72
2023/05/23 07:18:05;;;;;;;26.70;4.15;;;13.10;99.90;;;;;;4949443;29;20070;-72
2023/05/23 07:20:34;;;;;;;18.50;3.40;;;13.10;99.90;;;;;;4954146;29;20023;-73
2023/05/23 07:23:00;;;;;;;29.42;4.32;;;13.10;99.90;;;;;;4948434;29;20046;-73
2023/05/23 07:25:26;;;;;;;19.10;3.08;;;13.00;99.90;;;;;;4951588;29;20444;-73
2023/05/23 07:27:53;;;;;;;20.80;4.10;;;13.10;99.90;;;;;;4951189;28;20450;-73
2023/05/23 07:30:21;;;;;;;19.85;3.65;;;13.10;99.90;;;;;;4956118;28;20066;-73
2023/05/23 07:32:47;;;;;;;23.10;4.22;;;13.10;99.90;;;;;;4950241;29;20089;-74
2023/05/23 07:35:14;;;;;;;18.13;3.55;;;13.20;99.90;;;;;;4945572;29;20034;-73
2023/05/23 07:37:40;;;;;;;16.98;3.15;;;13.40;99.90;;;;;;4954734;29;20023;-73
2023/05/23 07:40:09;;;;;;;22.05;4.05;;;13.50;99.90;;;;;;4954619;29;20490;-73
2023/05/23 07:42:35;;;;;;;23.27;3.95;;;13.70;99.90;;;;;;4954634;29;20015;-73
2023/05/23 07:45:00;;;;;;;21.65;3.58;;;13.80;99.90;;;;;;4955294;29;20022;-73
2023/05/23 07:47:26;;;;;;;19.58;3.47;;;14.00;99.90;;;;;;4955054;28;20035;-73
2023/05/23 07:49:53;;;;;;;20.42;3.40;;;14.00;99.90;;;;;;4955849;28;20024;-73
2023/05/23 07:52:20;;;;;;;22.55;3.75;;;14.00;99.90;;;;;;4949739;28;20110;-73
2023/05/23 07:54:45;;;;;;;20.83;3.80;;;14.10;99.90;;;;;;4949995;28;20082;-72
2023/05/23 07:57:11;;;;;;;24.33;3.72;;;14.20;99.90;;;;;;4951541;28;20475;-74
2023/05/23 07:59:37;;;;;;;20.02;3.97;;;14.30;99.90;;;;;;4946751;29;20400;-73
2023/05/23 08:02:03;;;;;;;24.65;3.78;;;14.30;99.90;;;;;;4955445;28;20028;-74
2023/05/23 08:04:29;;;;;;;22.58;3.60;;;14.30;99.90;;;;;;4954330;28;20406;-74
2023/05/23 08:06:54;;;;;;;14.88;3.13;;;14.40;99.90;;;;;;4955675;29;20019;-74
2023/05/23 08:09:23;;;;;;;19.30;3.95;;;14.50;99.90;;;;;;4955486;28;20027;-73
2023/05/23 08:11:49;;;;;;;15.77;2.90;;;14.40;99.90;;;;;;4955724;28;20061;-74
2023/05/23 08:14:14;;;;;;;22.10;3.90;;;14.50;99.90;;;;;;4955385;29;20137;-74
2023/05/23 08:16:40;;;;;;;18.63;3.53;;;14.60;99.90;;;;;;4955420;28;20028;-74
2023/05/23 08:19:07;;;;;;;24.25;4.10;;;14.70;99.90;;;;;;4953513;29;20062;-74
2023/05/23 08:21:33;;;;;;;26.73;4.32;;;14.80;99.90;;;;;;4955251;28;20093;-73
2023/05/23 08:23:59;;;;;;;19.05;3.80;;;14.90;99.90;;;;;;4955098;28;20027;-73
2023/05/23 08:26:26;;;;;;;22.48;3.78;;;15.00;99.90;;;;;;4953373;29;20166;-73
2023/05/23 08:28:52;;;;;;;18.27;3.78;;;14.90;99.90;;;;;;4953692;28;20118;-73
2023/05/23 08:31:18;;;;;;;24.33;4.00;;;14.90;99.90;;;;;;4955267;28;20111;-74
2023/05/23 08:33:44;;;;;;;19.95;3.70;;;14.90;99.90;;;;;;4954690;28;20023;-74
2023/05/23 08:36:09;;;;;;;15.20;3.30;;;14.90;99.90;;;;;;4955039;28;20026;-73
2023/05/23 08:38:35;;;;;;;25.40;4.28;;;14.90;99.90;;;;;;4952986;29;20106;-74
2023/05/23 08:41:01;;;;;;;20.95;4.13;;;15.00;99.90;;;;;;4955094;28;20023;-73
2023/05/23 08:43:28;;;;;;;21.60;3.75;;;15.10;99.90;;;;;;4954582;28;20039;-73
2023/05/23 08:45:54;;;;;;;22.85;3.80;;;15.10;99.90;;;;;;4954841;28;20534;-73
2023/05/23 08:48:27;;;;;;;24.45;3.85;;;15.20;99.90;;;;;;4952411;29;20498;-73
2023/05/23 08:50:53;;;;;;;22.17;4.03;;;15.20;99.90;;;;;;4954983;28;20366;-73
2023/05/23 08:53:22;;;;;;;20.73;4.25;;;15.20;99.90;;;;;;4954058;28;20023;-73
2023/05/23 08:55:50;;;;;;;17.08;3.83;;;15.20;99.90;;;;;;4954727;28;20102;-73
2023/05/23 08:58:19;;;;;;;21.15;4.32;;;15.20;99.90;;;;;;4954499;29;20042;-73
2023/05/23 09:00:46;;;;;;;24.70;5.10;;;15.40;99.90;;;;;;4954540;28;20039;-73
2023/05/23 09:03:13;;;;;;;22.27;3.95;;;15.40;99.90;;;;;;4954059;28;20028;-73
2023/05/23 09:05:38;;;;;;;27.85;4.57;;;15.40;99.90;;;;;;4952924;29;20019;-73
2023/05/23 09:08:04;;;;;;;20.77;3.85;;;15.40;99.90;;;;;;4954398;29;20434;-73
2023/05/23 09:10:30;;;;;;;19.67;4.03;;;15.40;99.90;;;;;;4954385;29;20102;-73
2023/05/23 09:12:57;;;;;;;18.83;4.30;;;15.50;99.90;;;;;;4950130;29;20063;-73
2023/05/23 09:15:30;;;;;;;20.33;4.03;;;15.60;99.90;;;;;;4944718;29;20023;-73
2023/05/23 09:18:00;;;;;;;16.15;3.35;;;15.80;99.90;;;;;;4954149;29;20106;-73
2023/05/23 09:20:27;;;;;;;23.48;3.80;;;16.00;99.90;;;;;;4954260;28;20034;-73
2023/05/23 09:22:54;;;;;;;15.32;3.75;;;16.20;99.90;;;;;;4954023;28;20034;-73
2023/05/23 09:25:20;;;;;;;19.15;3.55;;;16.30;99.90;;;;;;4954150;28;20591;-73
2023/05/23 09:27:46;;;;;;;15.07;3.35;;;16.20;99.90;;;;;;4954060;28;20078;-74
2023/05/23 09:30:12;;;;;;;14.13;3.30;;;16.00;99.90;;;;;;4958840;28;20035;-73
2023/05/23 09:32:39;;;;;;;23.60;4.15;;;15.90;99.90;;;;;;4960435;29;20042;-74
2023/05/23 09:35:06;;;;;;;19.15;3.90;;;15.90;99.90;;;;;;4961561;28;20126;-73
2023/05/23 09:37:44;;;;;;;16.25;3.38;;;15.90;99.90;;;;;;4954561;28;20027;-72
2023/05/23 09:40:12;;;;;;;20.33;3.90;;;15.90;99.90;;;;;;4949363;28;20051;-72
2023/05/23 09:42:45;;;;;;;18.10;3.55;;;16.10;99.90;;;;;;4953534;29;20031;-74
2023/05/23 09:45:12;;;;;;;18.63;3.78;;;16.20;99.90;;;;;;4953713;28;20027;-72
2023/05/23 09:47:37;;;;;;;20.25;3.92;;;16.30;99.90;;;;;;4953394;28;20046;-73
2023/05/23 09:50:07;;;;;;;18.88;3.65;;;16.20;99.90;;;;;;4953822;28;20055;-73
2023/05/23 09:52:37;;;;;;;17.00;3.40;;;16.10;99.90;;;;;;4952746;29;20031;-73
2023/05/23 09:55:03;;;;;;;17.73;3.60;;;16.10;99.90;;;;;;4953897;28;20031;-73
2023/05/23 09:57:30;;;;;;;18.98;3.40;;;16.10;99.90;;;;;;4954233;28;20165;-74
2023/05/23 09:59:59;;;;;;;17.98;3.33;;;16.10;99.90;;;;;;4948039;29;20458;-74
2023/05/23 10:02:44;;;;;;;17.95;3.50;;;16.30;99.90;;;;;;4953668;29;20039;-74
2023/05/23 10:05:21;;;;;;;13.18;3.17;;;16.50;99.90;;;;;;4948173;29;20102;-73
2023/05/23 10:07:47;;;;;;;21.77;3.80;;;16.40;99.90;;;;;;4953435;29;20020;-73
2023/05/23 10:10:13;;;;;;;16.05;3.42;;;16.40;99.90;;;;;;4953540;29;20142;-72
2023/05/23 10:12:45;;;;;;;14.48;2.90;;;16.40;99.90;;;;;;4949741;29;20026;-73
2023/05/23 10:15:12;;;;;;;13.02;2.67;;;16.50;99.90;;;;;;4953654;29;20371;-73
2023/05/23 10:18:09;;;;;;;18.75;3.58;;;16.60;99.90;;;;;;4953135;28;20027;-73
2023/05/23 10:20:38;;;;;;;19.63;3.30;;;16.60;99.90;;;;;;4953648;28;20031;-73
2023/05/23 10:23:04;;;;;;;20.27;3.85;;;16.60;99.90;;;;;;4953448;29;20023;-74
2023/05/23 10:25:30;;;;;;;19.42;3.90;;;16.80;99.90;;;;;;4953205;28;20031;-74
2023/05/23 10:27:58;;;;;;;18.33;3.40;;;16.80;99.90;;;;;;4946156;29;20032;-73
2023/05/23 10:30:27;;;;;;;20.15;3.47;;;16.80;99.90;;;;;;4941515;29;20042;-73
2023/05/23 10:32:55;;;;;;;16.65;3.55;;;16.90;99.90;;;;;;4953438;28;20090;-73
2023/05/23 10:35:29;;;;;;;21.38;4.13;;;16.70;99.90;;;;;;4953542;29;20023;-74
2023/05/23 10:38:17;;;;;;;18.25;3.80;;;16.40;99.90;;;;;;4953659;29;20046;-73
2023/05/23 10:40:59;;;;;;;27.77;3.83;;;16.20;99.90;;;;;;4942679;29;20043;-73
2023/05/23 10:43:47;;;;;;;23.38;3.90;;;15.90;99.90;;;;;;4957255;28;20065;-73
2023/05/23 10:46:14;;;;;;;19.60;4.00;;;15.80;99.90;;;;;;4956739;29;20078;-73
2023/05/23 10:48:43;;;;;;;16.65;3.40;;;15.80;99.90;;;;;;4952601;28;20087;-72
2023/05/23 10:51:11;;;;;;;19.58;3.90;;;15.80;99.90;;;;;;4947952;29;20042;-73
2023/05/23 10:53:43;;;;;;;21.13;3.90;;;15.60;99.90;;;;;;4956357;28;20035;-73
2023/05/23 10:56:18;;;;;;;20.65;3.70;;;15.60;99.90;;;;;;4956742;29;20561;-73
2023/05/23 10:58:44;;;;;;;23.95;4.03;;;15.70;99.90;;;;;;4956649;28;20019;-73
2023/05/23 11:01:15;;;;;;;21.70;3.33;;;16.00;99.90;;;;;;4956394;28;20034;-73
2023/05/23 11:03:47;;;;;;;18.55;4.72;;;16.00;99.90;;;;;;4956590;28;20027;-73
2023/05/23 11:06:43;;;;;;;21.67;3.38;;;16.20;99.90;;;;;;4951224;29;20039;-73
2023/05/23 11:09:17;;;;;;;16.83;3.30;;;16.30;99.90;;;;;;4951971;29;20055;-73
2023/05/23 11:12:04;;;;;;;14.60;3.33;;;16.50;99.90;;;;;;4957067;29;20035;-73
2023/05/23 11:14:32;;;;;;;16.23;3.08;;;16.70;99.90;;;;;;4956715;28;20019;-73
2023/05/23 11:17:18;;;;;;;14.75;2.97;;;16.70;99.90;;;;;;4956199;29;20538;-73
2023/05/23 11:20:05;;;;;;;11.90;2.90;;;16.80;99.90;;;;;;4956181;28;20045;-73
2023/05/23 11:22:32;;;;;;;12.55;2.95;;;16.90;99.90;;;;;;4956052;28;20060;-72
2023/05/23 11:24:59;;;;;;;20.20;3.25;;;16.80;99.90;;;;;;4956139;28;20031;-72
2023/05/23 11:27:31;;;;;;;12.75;3.30;;;17.00;99.90;;;;;;4956060;28;20043;-74
2023/05/23 11:30:16;;;;;;;14.93;3.20;;;17.20;99.90;;;;;;4955893;28;20047;-73
2023/05/23 11:32:52;;;;;;;16.67;3.45;;;17.10;99.90;;;;;;4949590;29;20110;-73
2023/05/23 11:35:20;;;;;;;14.68;2.78;;;17.20;99.90;;;;;;4956295;28;20038;-74
2023/05/23 11:37:46;;;;;;;20.38;3.38;;;17.10;99.90;;;;;;4948832;29;20038;-74
2023/05/23 11:40:38;;;;;;;16.63;3.40;;;17.00;99.90;;;;;;4954620;28;20058;-74
2023/05/23 11:43:13;;;;;;;15.63;2.65;;;17.00;99.90;;;;;;4956091;28;20122;-74
2023/05/23 11:45:39;;;;;;;12.02;3.25;;;16.80;99.90;;;;;;4955957;28;20024;-74
2023/05/23 11:48:13;;;;;;;16.05;3.45;;;16.60;99.90;;;;;;4955935;28;20037;-74
2023/05/23 11:50:52;;;;;;;18.50;3.42;;;16.60;99.90;;;;;;4953949;28;20031;-74
2023/05/23 11:53:20;;;;;;;18.50;3.15;;;16.60;99.90;;;;;;4955889;28;20028;-74
2023/05/23 11:56:00;;;;;;;15.85;3.25;;;16.70;99.90;;;;;;4944521;28;20114;-74
2023/05/23 11:58:28;;;;;;;18.98;3.47;;;16.80;99.90;;;;;;4947734;28;20048;-74
2023/05/23 12:01:05;;;;;;;12.63;2.63;;;17.00;99.90;;;;;;4951342;28;20099;-74
2023/05/23 12:03:32;;;;;;;13.00;3.05;;;16.90;99.90;;;;;;4955646;28;20459;-73
2023/05/23 12:05:58;;;;;;;21.95;3.55;;;16.70;99.90;;;;;;4955634;28;20430;-73
2023/05/23 12:08:24;;;;;;;17.73;3.08;;;16.60;99.90;;;;;;4955751;28;20023;-73
2023/05/23 12:10:56;;;;;;;21.05;3.13;;;16.60;99.90;;;;;;4959477;29;20053;-72
2023/05/23 12:13:27;;;;;;;14.80;3.35;;;16.60;99.90;;;;;;4960100;28;20023;-72
2023/05/23 12:15:54;;;;;;;19.60;3.63;;;16.50;99.90;;;;;;4959365;28;20045;-73
2023/05/23 12:18:20;;;;;;;20.45;4.10;;;16.40;99.90;;;;;;4955485;28;20035;-74
2023/05/23 12:20:51;;;;;;;20.83;3.78;;;16.50;99.90;;;;;;4955318;29;20102;-74
2023/05/23 12:23:23;;;;;;;18.73;3.42;;;16.50;99.90;;;;;;4954765;28;20418;-74
2023/05/23 12:25:51;;;;;;;19.42;3.97;;;16.60;99.90;;;;;;4951677;28;20034;-74
2023/05/23 12:28:17;;;;;;;19.67;3.65;;;16.70;99.90;;;;;;4950260;28;20031;-74
2023/05/23 12:30:43;;;;;;;15.00;3.33;;;16.90;99.90;;;;;;4951767;29;20031;-74
2023/05/23 12:33:10;;;;;;;17.73;2.88;;;17.00;99.90;;;;;;4954963;28;20054;-74
2023/05/23 12:35:36;;;;;;;18.08;3.15;;;16.90;99.90;;;;;;4955425;28;20038;-73
2023/05/23 12:38:08;;;;;;;18.40;2.90;;;16.90;99.90;;;;;;4954631;29;20437;-73
2023/05/23 12:40:34;;;;;;;12.30;2.75;;;16.70;99.90;;;;;;4953861;28;20066;-73